createdAt,value
2023-04-01T00:00:41.091Z,976.99
2023-04-01T00:01:41.068Z,977.03
2023-04-01T00:02:41.106Z,977.09
2023-04-01T00:03:41.147Z,977.11
2023-04-01T00:04:41.144Z,977.02
2023-04-01T00:05:41.007Z,976.86
2023-04-01T00:06:40.995Z,976.95
2023-04-01T00:07:40.978Z,977.00
2023-04-01T00:08:40.964Z,976.96
2023-04-01T00:09:40.956Z,976.94
2023-04-01T00:10:40.949Z,976.92
2023-04-01T00:11:40.924Z,976.94
2023-04-01T00:12:40.914Z,976.94
2023-04-01T00:13:40.895Z,976.93
2023-04-01T00:14:40.887Z,976.94
2023-04-01T00:15:40.869Z,977.02
2023-04-01T00:16:40.918Z,977.06
2023-04-01T00:18:40.831Z,977.10
2023-04-01T00:19:40.816Z,977.06
2023-04-01T00:20:40.802Z,977.02
2023-04-01T00:21:40.790Z,977.06
2023-04-01T00:22:40.776Z,977.04
2023-04-01T00:23:40.763Z,977.09
2023-04-01T00:24:40.748Z,976.99
2023-04-01T00:25:40.741Z,977.02
2023-04-01T00:26:40.720Z,977.09
2023-04-01T00:27:40.707Z,977.07
2023-04-01T00:28:40.694Z,977.04
2023-04-01T00:29:40.688Z,977.02
2023-04-01T00:30:40.711Z,977.06
2023-04-01T00:31:40.705Z,976.95
2023-04-01T00:32:40.700Z,977.05
2023-04-01T00:33:40.629Z,977.00
2023-04-01T00:34:40.622Z,976.96
2023-04-01T00:35:40.633Z,976.98
2023-04-01T00:36:40.637Z,976.94
2023-04-01T00:37:40.587Z,976.91
2023-04-01T00:38:40.571Z,977.00
2023-04-01T00:39:40.553Z,977.01
2023-04-01T00:40:40.537Z,976.98
2023-04-01T00:41:40.536Z,976.98
2023-04-01T00:42:40.515Z,977.02
2023-04-01T00:43:40.504Z,977.06
2023-04-01T00:44:40.489Z,977.00
2023-04-01T00:45:40.478Z,977.05
2023-04-01T00:46:40.482Z,976.96
2023-04-01T00:47:40.537Z,976.96
2023-04-01T00:48:40.466Z,976.95
2023-04-01T00:49:40.426Z,977.05
2023-04-01T00:50:40.406Z,977.00
2023-04-01T00:51:40.398Z,977.04
2023-04-01T00:52:40.385Z,977.05
2023-04-01T00:53:40.376Z,976.92
2023-04-01T00:54:40.353Z,977.03
2023-04-01T00:55:40.368Z,977.04
2023-04-01T00:56:40.335Z,976.97
2023-04-01T00:57:40.326Z,976.98
2023-04-01T00:58:40.326Z,976.94
2023-04-01T00:59:40.295Z,976.97
2023-04-01T01:00:40.345Z,976.89
2023-04-01T01:01:40.293Z,976.97
2023-04-01T01:02:40.454Z,976.97
2023-04-01T01:03:40.249Z,977.01
2023-04-01T01:04:40.247Z,976.93
2023-04-01T01:05:48.786Z,976.96
2023-04-01T01:06:42.236Z,976.97
2023-04-01T01:07:40.199Z,976.97
2023-04-01T01:08:40.170Z,976.92
2023-04-01T01:09:40.158Z,976.92
2023-04-01T01:10:40.164Z,976.88
2023-04-01T01:11:43.725Z,976.95
2023-04-01T01:12:40.119Z,976.92
2023-04-01T01:13:40.108Z,976.92
2023-04-01T01:14:40.093Z,976.94
2023-04-01T01:15:40.083Z,976.80
2023-04-01T01:16:40.094Z,976.86
2023-04-01T01:17:40.091Z,976.87
2023-04-01T01:18:40.043Z,976.92
2023-04-01T01:19:40.026Z,976.95
2023-04-01T01:20:40.032Z,977.03
2023-04-01T01:21:39.996Z,976.87
2023-04-01T01:22:39.983Z,976.83
2023-04-01T01:23:39.972Z,976.89
2023-04-01T01:24:39.953Z,976.87
2023-04-01T01:25:39.944Z,976.91
2023-04-01T01:26:39.940Z,976.96
2023-04-01T01:27:39.917Z,976.78
2023-04-01T01:28:39.900Z,976.86
2023-04-01T01:29:39.886Z,976.86
2023-04-01T01:30:39.907Z,976.78
2023-04-01T01:31:39.860Z,976.93
2023-04-01T01:32:39.848Z,976.93
2023-04-01T01:33:39.835Z,976.95
2023-04-01T01:34:39.819Z,976.97
2023-04-01T01:35:39.826Z,976.95
2023-04-01T01:36:39.815Z,976.93
2023-04-01T01:37:39.778Z,976.84
2023-04-01T01:38:39.768Z,976.78
2023-04-01T01:39:39.762Z,976.86
2023-04-01T01:40:39.738Z,976.88
2023-04-01T01:41:39.754Z,976.79
2023-04-01T01:42:39.715Z,976.89
2023-04-01T01:43:39.705Z,976.87
2023-04-01T01:44:39.684Z,976.78
2023-04-01T01:45:39.675Z,976.87
2023-04-01T01:46:39.692Z,976.92
2023-04-01T01:47:39.692Z,976.85
2023-04-01T01:48:39.629Z,976.92
2023-04-01T01:49:39.618Z,976.71
2023-04-01T01:50:39.606Z,976.77
2023-04-01T01:51:39.594Z,976.80
2023-04-01T01:52:39.600Z,976.81
2023-04-01T01:53:39.563Z,976.84
2023-04-01T01:54:39.548Z,976.81
2023-04-01T01:55:39.552Z,976.84
2023-04-01T01:56:39.544Z,976.83
2023-04-01T01:57:39.541Z,976.78
2023-04-01T01:58:39.496Z,976.82
2023-04-01T01:59:39.509Z,976.82
2023-04-01T02:00:39.489Z,976.75
2023-04-01T02:01:39.540Z,976.82
2023-04-01T02:02:39.481Z,976.80
2023-04-01T02:03:39.429Z,976.83
2023-04-01T02:04:39.466Z,976.75
2023-04-01T02:05:39.413Z,976.72
2023-04-01T02:06:39.396Z,976.81
2023-04-01T02:07:39.382Z,976.81
2023-04-01T02:08:39.396Z,976.75
2023-04-01T02:09:39.355Z,976.79
2023-04-01T02:10:39.351Z,976.78
2023-04-01T02:11:39.321Z,976.75
2023-04-01T02:12:39.309Z,976.76
2023-04-01T02:13:39.298Z,976.82
2023-04-01T02:14:39.290Z,976.72
2023-04-01T02:15:39.295Z,976.84
2023-04-01T02:16:39.261Z,976.81
2023-04-01T02:17:39.338Z,976.71
2023-04-01T02:18:39.229Z,976.73
2023-04-01T02:19:39.219Z,976.82
2023-04-01T02:20:39.200Z,976.74
2023-04-01T02:21:39.196Z,976.86
2023-04-01T02:22:39.184Z,976.81
2023-04-01T02:23:39.164Z,976.90
2023-04-01T02:24:39.175Z,976.79
2023-04-01T02:25:39.133Z,976.70
2023-04-01T02:26:39.119Z,976.71
2023-04-01T02:27:39.108Z,976.81
2023-04-01T02:28:39.096Z,976.82
2023-04-01T02:29:39.092Z,976.74
2023-04-01T02:30:39.067Z,976.79
2023-04-01T02:31:39.108Z,976.71
2023-04-01T02:32:39.126Z,976.79
2023-04-01T02:33:39.027Z,976.77
2023-04-01T02:34:39.018Z,976.78
2023-04-01T02:35:39.007Z,976.56
2023-04-01T02:36:38.985Z,976.81
2023-04-01T02:37:40.382Z,976.90
2023-04-01T02:38:38.962Z,976.78
2023-04-01T02:39:38.952Z,976.74
2023-04-01T02:40:38.956Z,976.84
2023-04-01T02:41:38.920Z,976.82
2023-04-01T02:42:38.909Z,976.75
2023-04-01T02:43:38.900Z,976.80
2023-04-01T02:44:38.882Z,976.75
2023-04-01T02:45:38.871Z,976.76
2023-04-01T02:46:38.921Z,976.87
2023-04-01T02:47:38.885Z,976.80
2023-04-01T02:48:38.851Z,976.77
2023-04-01T02:49:38.816Z,976.78
2023-04-01T02:50:38.808Z,976.74
2023-04-01T02:51:38.794Z,976.67
2023-04-01T02:52:38.778Z,976.71
2023-04-01T02:53:38.766Z,976.82
2023-04-01T02:54:38.757Z,976.90
2023-04-01T02:55:38.736Z,976.65
2023-04-01T02:56:38.748Z,976.79
2023-04-01T02:57:38.723Z,976.77
2023-04-01T02:58:38.703Z,976.86
2023-04-01T02:59:38.686Z,976.68
2023-04-01T03:00:38.675Z,976.81
2023-04-01T03:01:38.719Z,976.77
2023-04-01T03:02:38.754Z,976.62
2023-04-01T03:03:38.682Z,976.79
2023-04-01T03:04:38.622Z,976.78
2023-04-01T03:05:38.611Z,976.79
2023-04-01T03:06:38.602Z,976.76
2023-04-01T03:07:38.586Z,976.86
2023-04-01T03:08:38.577Z,976.72
2023-04-01T03:09:38.558Z,976.71
2023-04-01T03:10:38.546Z,976.75
2023-04-01T03:11:38.531Z,976.74
2023-04-01T03:12:38.546Z,976.82
2023-04-01T03:13:38.508Z,976.78
2023-04-01T03:14:38.500Z,976.80
2023-04-01T03:15:38.503Z,976.75
2023-04-01T03:16:38.507Z,976.75
2023-04-01T03:17:38.486Z,976.74
2023-04-01T03:18:38.442Z,976.70
2023-04-01T03:19:38.424Z,976.73
2023-04-01T03:20:38.417Z,976.74
2023-04-01T03:21:38.403Z,976.75
2023-04-01T03:22:39.626Z,976.74
2023-04-01T03:23:38.369Z,976.73
2023-04-01T03:24:38.358Z,976.65
2023-04-01T03:25:38.353Z,976.68
2023-04-01T03:26:38.332Z,976.72
2023-04-01T03:27:38.327Z,976.72
2023-04-01T03:28:38.329Z,976.76
2023-04-01T03:29:38.327Z,976.72
2023-04-01T03:30:38.316Z,976.66
2023-04-01T03:31:38.275Z,976.67
2023-04-01T03:32:38.337Z,976.71
2023-04-01T03:33:38.238Z,976.62
2023-04-01T03:34:38.222Z,976.62
2023-04-01T03:35:38.213Z,976.62
2023-04-01T03:36:38.271Z,976.65
2023-04-01T03:37:38.184Z,976.56
2023-04-01T03:38:38.172Z,976.66
2023-04-01T03:39:38.154Z,976.70
2023-04-01T03:40:38.150Z,976.60
2023-04-01T03:41:38.128Z,976.65
2023-04-01T03:42:38.145Z,976.72
2023-04-01T03:43:38.108Z,976.60
2023-04-01T03:44:38.113Z,976.69
2023-04-01T03:45:38.074Z,976.68
2023-04-01T03:46:38.287Z,976.62
2023-04-01T03:47:38.097Z,976.67
2023-04-01T03:48:38.037Z,976.72
2023-04-01T03:49:38.028Z,976.62
2023-04-01T03:50:38.013Z,976.66
2023-04-01T03:51:37.994Z,976.75
2023-04-01T03:52:37.982Z,976.68
2023-04-01T03:53:37.973Z,976.69
2023-04-01T03:54:37.959Z,976.55
2023-04-01T03:55:37.954Z,976.69
2023-04-01T03:56:37.930Z,976.71
2023-04-01T03:57:37.919Z,976.63
2023-04-01T03:58:37.931Z,976.61
2023-04-01T03:59:37.889Z,976.71
2023-04-01T04:00:37.901Z,976.71
2023-04-01T04:01:37.869Z,976.69
2023-04-01T04:02:37.984Z,976.58
2023-04-01T04:03:37.942Z,976.50
2023-04-01T04:04:37.870Z,976.60
2023-04-01T04:05:37.810Z,976.71
2023-04-01T04:06:37.799Z,976.67
2023-04-01T04:07:37.793Z,976.72
2023-04-01T04:08:37.775Z,976.86
2023-04-01T04:09:37.757Z,976.66
2023-04-01T04:10:37.747Z,976.76
2023-04-01T04:11:37.735Z,976.76
2023-04-01T04:12:37.731Z,976.74
2023-04-01T04:13:37.711Z,976.71
2023-04-01T04:14:37.722Z,976.77
2023-04-01T04:15:37.703Z,976.73
2023-04-01T04:16:37.702Z,976.72
2023-04-01T04:17:37.672Z,976.77
2023-04-01T04:19:37.638Z,976.79
2023-04-01T04:20:37.624Z,976.78
2023-04-01T04:21:37.615Z,976.76
2023-04-01T04:22:37.604Z,976.76
2023-04-01T04:23:37.586Z,976.63
2023-04-01T04:24:37.596Z,976.75
2023-04-01T04:25:37.557Z,976.78
2023-04-01T04:26:37.550Z,976.65
2023-04-01T04:27:37.544Z,976.58
2023-04-01T04:28:37.525Z,976.80
2023-04-01T04:29:37.502Z,976.64
2023-04-01T04:30:37.497Z,976.79
2023-04-01T04:31:37.528Z,976.75
2023-04-01T04:32:37.525Z,976.77
2023-04-01T04:33:37.460Z,976.73
2023-04-01T04:34:37.438Z,976.76
2023-04-01T04:35:37.442Z,976.79
2023-04-01T04:36:37.417Z,976.77
2023-04-01T04:37:37.404Z,976.79
2023-04-01T04:38:37.391Z,976.75
2023-04-01T04:39:37.373Z,976.76
2023-04-01T04:40:37.365Z,976.76
2023-04-01T04:41:37.747Z,976.80
2023-04-01T04:42:37.339Z,976.71
2023-04-01T04:43:37.322Z,976.78
2023-04-01T04:44:37.312Z,976.84
2023-04-01T04:45:37.297Z,976.79
2023-04-01T04:46:37.343Z,976.85
2023-04-01T04:47:37.289Z,976.71
2023-04-01T04:48:37.296Z,976.76
2023-04-01T04:49:37.253Z,976.91
2023-04-01T04:50:37.233Z,976.77
2023-04-01T04:51:37.251Z,976.85
2023-04-01T04:52:37.209Z,976.73
2023-04-01T04:53:37.194Z,976.86
2023-04-01T04:54:37.190Z,976.82
2023-04-01T04:55:37.172Z,976.81
2023-04-01T04:56:37.156Z,976.88
2023-04-01T04:57:37.152Z,976.69
2023-04-01T04:58:37.137Z,976.86
2023-04-01T04:59:37.115Z,976.85
2023-04-01T05:00:37.108Z,976.74
2023-04-01T05:01:37.169Z,976.80
2023-04-01T05:02:37.175Z,976.86
2023-04-01T05:03:37.092Z,976.86
2023-04-01T05:04:37.077Z,976.85
2023-04-01T05:05:37.064Z,976.83
2023-04-01T05:06:37.030Z,976.82
2023-04-01T05:07:37.013Z,976.86
2023-04-01T05:08:37.000Z,976.89
2023-04-01T05:09:36.992Z,976.95
2023-04-01T05:10:36.988Z,976.87
2023-04-01T05:11:36.959Z,976.89
2023-04-01T05:12:36.949Z,976.83
2023-04-01T05:13:36.932Z,976.83
2023-04-01T05:14:36.932Z,976.94
2023-04-01T05:15:36.908Z,976.92
2023-04-01T05:16:36.947Z,976.95
2023-04-01T05:17:36.921Z,976.89
2023-04-01T05:18:36.868Z,976.93
2023-04-01T05:19:36.855Z,976.78
2023-04-01T05:20:36.880Z,976.80
2023-04-01T05:21:36.833Z,976.88
2023-04-01T05:22:36.825Z,976.93
2023-04-01T05:23:36.804Z,976.88
2023-04-01T05:24:36.790Z,976.87
2023-04-01T05:25:36.777Z,976.94
2023-04-01T05:26:36.764Z,976.86
2023-04-01T05:27:36.752Z,976.90
2023-04-01T05:28:36.741Z,976.89
2023-04-01T05:29:36.734Z,976.86
2023-04-01T05:30:36.736Z,976.83
2023-04-01T05:31:36.703Z,976.81
2023-04-01T05:32:36.725Z,976.84
2023-04-01T05:33:36.678Z,976.89
2023-04-01T05:34:36.660Z,976.85
2023-04-01T05:35:36.893Z,976.87
2023-04-01T05:36:36.662Z,976.88
2023-04-01T05:37:36.621Z,976.87
2023-04-01T05:38:36.612Z,976.90
2023-04-01T05:39:36.598Z,976.88
2023-04-01T05:40:36.587Z,976.81
2023-04-01T05:41:36.575Z,976.91
2023-04-01T05:42:38.139Z,976.83
2023-04-01T05:43:36.545Z,976.82
2023-04-01T05:44:36.546Z,976.79
2023-04-01T05:45:36.521Z,976.89
2023-04-01T05:46:36.683Z,976.87
2023-04-01T05:47:36.567Z,976.74
2023-04-01T05:48:36.483Z,976.91
2023-04-01T05:49:36.474Z,976.87
2023-04-01T05:50:36.460Z,976.77
2023-04-01T05:51:36.443Z,976.82
2023-04-01T05:52:36.456Z,976.85
2023-04-01T05:53:36.415Z,976.89
2023-04-01T05:54:36.408Z,976.80
2023-04-01T05:55:36.399Z,976.83
2023-04-01T05:56:36.383Z,976.84
2023-04-01T05:57:36.520Z,976.89
2023-04-01T05:58:36.363Z,976.87
2023-04-01T05:59:36.341Z,976.88
2023-04-01T06:00:36.332Z,976.77
2023-04-01T06:01:36.318Z,976.79
2023-04-01T06:02:36.454Z,976.83
2023-04-01T06:03:36.633Z,976.88
2023-04-01T06:04:36.317Z,976.93
2023-04-01T06:05:36.263Z,976.87
2023-04-01T06:06:36.261Z,976.94
2023-04-01T06:07:36.233Z,976.89
2023-04-01T06:08:36.252Z,977.01
2023-04-01T06:09:36.214Z,976.99
2023-04-01T06:10:36.202Z,976.96
2023-04-01T06:11:36.189Z,976.96
2023-04-01T06:12:36.174Z,977.02
2023-04-01T06:13:36.161Z,976.99
2023-04-01T06:14:36.175Z,977.00
2023-04-01T06:15:36.140Z,976.88
2023-04-01T06:16:36.146Z,976.99
2023-04-01T06:17:36.138Z,976.94
2023-04-01T06:18:36.103Z,976.98
2023-04-01T06:19:36.093Z,976.99
2023-04-01T06:20:36.071Z,976.90
2023-04-01T06:21:36.111Z,976.96
2023-04-01T06:22:36.053Z,976.93
2023-04-01T06:23:36.033Z,977.02
2023-04-01T06:24:36.082Z,976.96
2023-04-01T06:25:36.245Z,976.96
2023-04-01T06:26:35.994Z,976.97
2023-04-01T06:27:35.986Z,977.09
2023-04-01T06:28:36.005Z,977.05
2023-04-01T06:29:35.984Z,977.06
2023-04-01T06:30:35.951Z,977.03
2023-04-01T06:31:35.963Z,977.04
2023-04-01T06:32:35.967Z,977.09
2023-04-01T06:33:35.912Z,977.04
2023-04-01T06:34:35.913Z,977.11
2023-04-01T06:35:36.243Z,977.03
2023-04-01T06:36:35.942Z,977.06
2023-04-01T06:37:35.876Z,977.04
2023-04-01T06:38:35.846Z,977.08
2023-04-01T06:39:35.838Z,977.08
2023-04-01T06:40:35.854Z,977.03
2023-04-01T06:41:35.814Z,977.08
2023-04-01T06:42:35.804Z,977.07
2023-04-01T06:43:35.785Z,977.11
2023-04-01T06:44:35.780Z,977.09
2023-04-01T06:45:36.123Z,977.08
2023-04-01T06:46:35.753Z,977.10
2023-04-01T06:47:35.763Z,977.12
2023-04-01T06:48:35.724Z,977.08
2023-04-01T06:49:35.710Z,977.11
2023-04-01T06:50:35.699Z,977.05
2023-04-01T06:51:35.685Z,977.09
2023-04-01T06:52:35.788Z,977.14
2023-04-01T06:53:35.661Z,977.15
2023-04-01T06:54:35.650Z,977.14
2023-04-01T06:55:35.632Z,977.12
2023-04-01T06:56:35.644Z,977.12
2023-04-01T06:57:35.613Z,977.10
2023-04-01T06:58:35.590Z,977.13
2023-04-01T06:59:35.579Z,977.08
2023-04-01T07:00:35.586Z,976.94
2023-04-01T07:01:35.704Z,977.03
2023-04-01T07:02:35.616Z,977.06
2023-04-01T07:03:35.524Z,977.05
2023-04-01T07:04:35.543Z,977.06
2023-04-01T07:05:35.505Z,976.96
2023-04-01T07:06:35.487Z,977.11
2023-04-01T07:07:35.471Z,977.04
2023-04-01T07:08:35.455Z,976.99
2023-04-01T07:09:35.441Z,977.08
2023-04-01T07:10:35.436Z,976.99
2023-04-01T07:11:35.549Z,977.08
2023-04-01T07:12:35.428Z,977.10
2023-04-01T07:13:35.396Z,977.10
2023-04-01T07:14:35.375Z,977.16
2023-04-01T07:15:35.471Z,977.11
2023-04-01T07:16:35.367Z,977.17
2023-04-01T07:17:35.352Z,977.12
2023-04-01T07:18:35.320Z,977.13
2023-04-01T07:19:35.308Z,977.17
2023-04-01T07:20:35.300Z,977.07
2023-04-01T07:21:35.279Z,977.10
2023-04-01T07:22:35.272Z,977.12
2023-04-01T07:23:35.252Z,977.15
2023-04-01T07:24:35.262Z,977.10
2023-04-01T07:25:35.645Z,977.10
2023-04-01T07:26:35.213Z,977.14
2023-04-01T07:27:35.203Z,977.07
2023-04-01T07:28:35.398Z,977.08
2023-04-01T07:29:35.179Z,977.10
2023-04-01T07:30:35.161Z,977.08
2023-04-01T07:31:35.227Z,977.14
2023-04-01T07:32:36.392Z,977.10
2023-04-01T07:33:35.123Z,977.08
2023-04-01T07:34:35.110Z,977.14
2023-04-01T07:35:35.348Z,977.04
2023-04-01T07:36:35.084Z,977.06
2023-04-01T07:37:35.074Z,977.13
2023-04-01T07:38:35.078Z,977.13
2023-04-01T07:39:35.048Z,977.19
2023-04-01T07:40:35.041Z,977.18
2023-04-01T07:41:35.037Z,977.18
2023-04-01T07:42:35.012Z,977.19
2023-04-01T07:43:34.998Z,977.19
2023-04-01T07:44:35.015Z,977.16
2023-04-01T07:45:35.324Z,977.22
2023-04-01T07:46:34.987Z,977.22
2023-04-01T07:47:34.989Z,977.20
2023-04-01T07:48:34.932Z,977.23
2023-04-01T07:49:34.918Z,977.31
2023-04-01T07:50:34.910Z,977.27
2023-04-01T07:51:34.894Z,977.29
2023-04-01T07:52:34.881Z,977.25
2023-04-01T07:53:34.874Z,977.29
2023-04-01T07:54:34.859Z,977.27
2023-04-01T07:55:35.176Z,977.32
2023-04-01T07:56:34.829Z,977.27
2023-04-01T07:57:34.823Z,977.27
2023-04-01T07:58:34.811Z,977.27
2023-04-01T07:59:34.794Z,977.25
2023-04-01T08:00:34.814Z,977.35
2023-04-01T08:01:34.765Z,977.28
2023-04-01T08:02:34.802Z,977.33
2023-04-01T08:03:34.949Z,977.33
2023-04-01T08:04:34.784Z,977.32
2023-04-01T08:05:35.074Z,977.44
2023-04-01T08:06:34.698Z,977.38
2023-04-01T08:07:34.688Z,977.39
2023-04-01T08:08:34.675Z,977.36
2023-04-01T08:09:34.663Z,977.40
2023-04-01T08:10:34.646Z,977.44
2023-04-01T08:11:34.637Z,977.40
2023-04-01T08:12:34.621Z,977.44
2023-04-01T08:13:34.609Z,977.40
2023-04-01T08:14:34.600Z,977.37
2023-04-01T08:15:34.852Z,977.37
2023-04-01T08:16:34.647Z,977.39
2023-04-01T08:17:34.606Z,977.41
2023-04-01T08:18:34.552Z,977.59
2023-04-01T08:19:34.534Z,977.48
2023-04-01T08:20:34.510Z,977.51
2023-04-01T08:21:34.510Z,977.54
2023-04-01T08:22:34.534Z,977.52
2023-04-01T08:23:34.477Z,977.53
2023-04-01T08:24:46.450Z,977.47
2023-04-01T08:25:36.449Z,977.51
2023-04-01T08:26:34.432Z,977.49
2023-04-01T08:27:34.428Z,977.47
2023-04-01T08:28:34.408Z,977.45
2023-04-01T08:29:34.398Z,977.48
2023-04-01T08:30:34.385Z,977.47
2023-04-01T08:31:34.433Z,977.54
2023-04-01T08:32:34.400Z,977.41
2023-04-01T08:33:34.346Z,977.45
2023-04-01T08:34:34.333Z,977.52
2023-04-01T08:35:36.180Z,977.54
2023-04-01T08:36:34.348Z,977.54
2023-04-01T08:37:34.296Z,977.46
2023-04-01T08:38:34.280Z,977.55
2023-04-01T08:39:34.269Z,977.44
2023-04-01T08:40:34.259Z,977.51
2023-04-01T08:41:34.242Z,977.52
2023-04-01T08:42:34.226Z,977.51
2023-04-01T08:43:34.214Z,977.58
2023-04-01T08:44:34.204Z,977.49
2023-04-01T08:45:34.329Z,977.54
2023-04-01T08:46:34.176Z,977.49
2023-04-01T08:47:34.183Z,977.53
2023-04-01T08:48:34.178Z,977.56
2023-04-01T08:49:34.137Z,977.55
2023-04-01T08:50:34.125Z,977.55
2023-04-01T08:51:34.121Z,977.58
2023-04-01T08:52:34.099Z,977.58
2023-04-01T08:53:34.090Z,977.61
2023-04-01T08:54:34.075Z,977.62
2023-04-01T08:55:34.355Z,977.65
2023-04-01T08:56:34.050Z,977.64
2023-04-01T08:57:34.083Z,977.62
2023-04-01T08:58:34.027Z,977.64
2023-04-01T08:59:34.008Z,977.71
2023-04-01T09:00:34.008Z,977.64
2023-04-01T09:01:33.986Z,977.72
2023-04-01T09:02:34.062Z,977.65
2023-04-01T09:03:34.049Z,977.66
2023-04-01T09:04:34.078Z,977.69
2023-04-01T09:05:34.170Z,977.56
2023-04-01T09:06:33.924Z,977.70
2023-04-01T09:07:33.909Z,977.69
2023-04-01T09:08:33.894Z,977.67
2023-04-01T09:09:33.883Z,977.66
2023-04-01T09:10:33.870Z,977.56
2023-04-01T09:11:33.868Z,977.64
2023-04-01T09:12:33.842Z,977.62
2023-04-01T09:13:33.829Z,977.63
2023-04-01T09:14:33.820Z,977.58
2023-04-01T09:15:34.068Z,977.62
2023-04-01T09:16:33.823Z,977.60
2023-04-01T09:17:33.812Z,977.62
2023-04-01T09:18:33.765Z,977.69
2023-04-01T09:19:33.753Z,977.68
2023-04-01T09:20:33.767Z,977.69
2023-04-01T09:21:33.728Z,977.72
2023-04-01T09:22:33.717Z,977.71
2023-04-01T09:23:33.706Z,977.73
2023-04-01T09:24:33.695Z,977.72
2023-04-01T09:25:34.057Z,977.72
2023-04-01T09:26:33.669Z,977.74
2023-04-01T09:27:33.657Z,977.64
2023-04-01T09:28:33.651Z,977.74
2023-04-01T09:29:33.657Z,977.76
2023-04-01T09:30:33.644Z,977.79
2023-04-01T09:31:33.853Z,977.78
2023-04-01T09:32:33.697Z,977.76
2023-04-01T09:33:33.616Z,977.85
2023-04-01T09:34:33.601Z,977.88
2023-04-01T09:35:33.666Z,977.86
2023-04-01T09:36:33.563Z,977.82
2023-04-01T09:37:33.573Z,977.85
2023-04-01T09:38:33.514Z,977.83
2023-04-01T09:39:33.524Z,977.84
2023-04-01T09:40:33.492Z,977.79
2023-04-01T09:41:33.483Z,977.84
2023-04-01T09:42:33.462Z,977.90
2023-04-01T09:43:33.450Z,977.82
2023-04-01T09:44:33.441Z,977.80
2023-04-01T09:45:33.866Z,977.84
2023-04-01T09:46:33.531Z,977.96
2023-04-01T09:47:33.417Z,977.90
2023-04-01T09:48:33.384Z,977.95
2023-04-01T09:49:33.369Z,977.95
2023-04-01T09:50:33.361Z,977.99
2023-04-01T09:51:33.346Z,977.96
2023-04-01T09:52:33.355Z,977.95
2023-04-01T09:53:33.336Z,977.86
2023-04-01T09:54:33.321Z,977.98
2023-04-01T09:55:33.479Z,977.94
2023-04-01T09:56:34.315Z,977.94
2023-04-01T09:57:33.410Z,977.97
2023-04-01T09:58:33.272Z,977.99
2023-04-01T09:59:33.248Z,977.96
2023-04-01T10:00:33.243Z,978.00
2023-04-01T10:01:33.255Z,978.04
2023-04-01T10:02:33.268Z,978.08
2023-04-01T10:03:33.191Z,978.06
2023-04-01T10:04:33.173Z,978.10
2023-04-01T10:05:33.422Z,978.07
2023-04-01T10:06:33.157Z,978.06
2023-04-01T10:07:33.137Z,978.03
2023-04-01T10:08:33.172Z,978.00
2023-04-01T10:09:33.126Z,978.05
2023-04-01T10:10:33.093Z,978.06
2023-04-01T10:11:33.083Z,978.03
2023-04-01T10:12:33.073Z,978.00
2023-04-01T10:13:33.059Z,978.05
2023-04-01T10:14:33.041Z,977.99
2023-04-01T10:15:33.242Z,978.08
2023-04-01T10:16:33.031Z,978.05
2023-04-01T10:17:33.050Z,977.98
2023-04-01T10:18:32.989Z,978.11
2023-04-01T10:19:32.977Z,978.05
2023-04-01T10:20:32.963Z,977.99
2023-04-01T10:21:32.952Z,978.06
2023-04-01T10:22:32.936Z,978.05
2023-04-01T10:23:32.926Z,978.10
2023-04-01T10:24:32.935Z,978.05
2023-04-01T10:25:33.096Z,978.06
2023-04-01T10:26:32.885Z,978.10
2023-04-01T10:27:32.873Z,978.13
2023-04-01T10:28:32.858Z,978.10
2023-04-01T10:29:32.845Z,978.12
2023-04-01T10:30:32.834Z,978.10
2023-04-01T10:31:32.844Z,978.10
2023-04-01T10:32:32.820Z,978.18
2023-04-01T10:33:32.797Z,978.09
2023-04-01T10:34:32.780Z,978.05
2023-04-01T10:35:33.088Z,978.12
2023-04-01T10:36:32.760Z,978.07
2023-04-01T10:37:32.759Z,978.18
2023-04-01T10:38:32.734Z,978.09
2023-04-01T10:39:32.733Z,978.15
2023-04-01T10:40:32.727Z,978.15
2023-04-01T10:41:32.690Z,978.19
2023-04-01T10:42:32.683Z,978.15
2023-04-01T10:43:32.680Z,978.16
2023-04-01T10:44:32.650Z,978.20
2023-04-01T10:45:32.998Z,978.15
2023-04-01T10:46:32.711Z,978.19
2023-04-01T10:47:32.641Z,978.20
2023-04-01T10:48:32.596Z,978.19
2023-04-01T10:49:32.598Z,978.20
2023-04-01T10:50:32.577Z,978.17
2023-04-01T10:51:32.564Z,978.23
2023-04-01T10:52:32.549Z,978.22
2023-04-01T10:53:32.550Z,978.24
2023-04-01T10:54:32.528Z,978.14
2023-04-01T10:55:32.832Z,978.15
2023-04-01T10:56:32.534Z,978.18
2023-04-01T10:57:32.612Z,978.20
2023-04-01T10:58:32.474Z,978.22
2023-04-01T10:59:32.460Z,978.11
2023-04-01T11:00:32.444Z,978.16
2023-04-01T11:01:32.495Z,978.16
2023-04-01T11:02:32.583Z,978.18
2023-04-01T11:03:32.571Z,978.18
2023-04-01T11:04:32.392Z,978.20
2023-04-01T11:05:32.590Z,978.16
2023-04-01T11:06:32.369Z,978.19
2023-04-01T11:07:32.362Z,978.26
2023-04-01T11:08:32.341Z,978.17
2023-04-01T11:09:32.328Z,978.23
2023-04-01T11:10:32.318Z,978.23
2023-04-01T11:11:32.302Z,978.23
2023-04-01T11:12:32.322Z,978.23
2023-04-01T11:13:32.277Z,978.25
2023-04-01T11:14:32.270Z,978.26
2023-04-01T11:15:32.518Z,978.28
2023-04-01T11:16:32.300Z,978.27
2023-04-01T11:17:32.247Z,978.37
2023-04-01T11:18:32.213Z,978.29
2023-04-01T11:19:32.197Z,978.27
2023-04-01T11:20:32.228Z,978.30
2023-04-01T11:21:32.170Z,978.34
2023-04-01T11:22:32.161Z,978.30
2023-04-01T11:23:32.165Z,978.38
2023-04-01T11:24:32.141Z,978.35
2023-04-01T11:25:32.350Z,978.42
2023-04-01T11:26:32.108Z,978.39
2023-04-01T11:27:32.104Z,978.42
2023-04-01T11:28:32.107Z,978.41
2023-04-01T11:29:32.078Z,978.55
2023-04-01T11:30:32.059Z,978.37
2023-04-01T11:31:32.112Z,978.44
2023-04-01T11:32:32.071Z,978.41
2023-04-01T11:33:32.017Z,978.42
2023-04-01T11:34:32.005Z,978.45
2023-04-01T11:35:32.329Z,978.45
2023-04-01T11:36:32.020Z,978.41
2023-04-01T11:37:31.965Z,978.44
2023-04-01T11:38:31.964Z,978.45
2023-04-01T11:39:31.938Z,978.49
2023-04-01T11:40:31.929Z,978.45
2023-04-01T11:41:31.917Z,978.50
2023-04-01T11:42:31.905Z,978.43
2023-04-01T11:43:33.824Z,978.49
2023-04-01T11:44:31.908Z,978.49
2023-04-01T11:45:32.145Z,978.54
2023-04-01T11:46:31.896Z,978.60
2023-04-01T11:47:31.861Z,978.58
2023-04-01T11:48:31.839Z,978.61
2023-04-01T11:49:31.811Z,978.58
2023-04-01T11:50:31.799Z,978.60
2023-04-01T11:51:31.807Z,978.61
2023-04-01T11:52:31.780Z,978.63
2023-04-01T11:53:31.765Z,978.59
2023-04-01T11:54:31.748Z,978.57
2023-04-01T11:55:31.934Z,978.65
2023-04-01T11:56:31.728Z,978.67
2023-04-01T11:57:31.766Z,978.58
2023-04-01T11:58:31.698Z,978.68
2023-04-01T11:59:31.684Z,978.71
2023-04-01T12:00:31.696Z,978.70
2023-04-01T12:01:31.666Z,978.63
2023-04-01T12:02:31.765Z,978.73
2023-04-01T12:03:31.875Z,978.68
2023-04-01T12:04:31.688Z,978.72
2023-04-01T12:05:31.913Z,978.69
2023-04-01T12:06:31.601Z,978.73
2023-04-01T12:07:31.582Z,978.75
2023-04-01T12:08:31.566Z,978.77
2023-04-01T12:09:31.569Z,978.74
2023-04-01T12:10:31.541Z,978.75
2023-04-01T12:11:31.526Z,978.71
2023-04-01T12:12:31.513Z,978.71
2023-04-01T12:13:31.499Z,978.74
2023-04-01T12:14:31.493Z,978.72
2023-04-01T12:15:31.680Z,978.71
2023-04-01T12:16:31.519Z,978.72
2023-04-01T12:17:31.501Z,978.72
2023-04-01T12:18:31.437Z,978.77
2023-04-01T12:20:31.445Z,978.76
2023-04-01T12:21:31.401Z,978.86
2023-04-01T12:22:33.756Z,978.76
2023-04-01T12:23:31.369Z,978.82
2023-04-01T12:24:31.358Z,978.85
2023-04-01T12:25:31.644Z,978.80
2023-04-01T12:26:31.339Z,978.87
2023-04-01T12:27:31.316Z,978.89
2023-04-01T12:28:31.309Z,978.87
2023-04-01T12:29:31.292Z,978.79
2023-04-01T12:30:31.278Z,978.85
2023-04-01T12:31:31.287Z,978.90